createdAt,value
2018-07-08T00:02:18.543Z,16.50
2018-07-08T00:04:49.223Z,16.40
2018-07-08T00:07:18.502Z,16.40
2018-07-08T00:12:17.298Z,16.30
2018-07-08T00:14:47.065Z,16.30
2018-07-08T00:17:16.121Z,16.20
2018-07-08T00:19:45.487Z,16.10
2018-07-08T00:22:15.082Z,16.00
2018-07-08T00:24:44.526Z,16.00
2018-07-08T00:27:13.892Z,16.00
2018-07-08T00:29:43.241Z,15.90
2018-07-08T00:32:12.617Z,15.80
2018-07-08T00:34:42.246Z,15.90
2018-07-08T00:37:11.697Z,15.80
2018-07-08T00:39:41.099Z,15.80
2018-07-08T00:42:11.154Z,15.80
2018-07-08T00:44:40.589Z,15.70
2018-07-08T00:47:10.032Z,15.60
2018-07-08T00:49:39.484Z,15.60
2018-07-08T00:52:09.104Z,15.50
2018-07-08T00:54:38.413Z,15.60
2018-07-08T00:57:07.837Z,15.60
2018-07-08T00:59:37.197Z,15.60
2018-07-08T01:02:06.496Z,15.50
2018-07-08T01:04:36.121Z,15.40
2018-07-08T01:07:05.594Z,15.40
2018-07-08T01:09:34.862Z,15.40
2018-07-08T01:12:04.447Z,15.40
2018-07-08T01:14:34.043Z,15.40
2018-07-08T01:17:03.339Z,15.40
2018-07-08T01:19:33.104Z,15.40
2018-07-08T01:22:02.524Z,15.30
2018-07-08T01:24:31.861Z,15.10
2018-07-08T01:27:01.145Z,15.10
2018-07-08T01:29:31.229Z,15.20
2018-07-08T01:32:00.567Z,15.10
2018-07-08T01:34:30.027Z,15.10
2018-07-08T01:36:59.375Z,15.10
2018-07-08T01:39:28.978Z,15.00
2018-07-08T01:41:58.256Z,15.00
2018-07-08T01:44:27.595Z,14.90
2018-07-08T01:46:56.859Z,15.00
2018-07-08T01:49:26.752Z,15.00
2018-07-08T01:51:56.216Z,15.00
2018-07-08T01:54:26.431Z,14.90
2018-07-08T01:56:56.000Z,14.90
2018-07-08T02:01:55.361Z,15.00
2018-07-08T02:04:24.956Z,15.00
2018-07-08T02:06:54.759Z,15.00
2018-07-08T02:09:24.253Z,14.90
2018-07-08T02:11:54.012Z,15.00
2018-07-08T02:14:23.934Z,15.00
2018-07-08T02:16:53.892Z,14.90
2018-07-08T02:19:23.859Z,14.90
2018-07-08T02:21:53.682Z,14.80
2018-07-08T02:26:52.426Z,14.50
2018-07-08T02:29:22.126Z,14.50
2018-07-08T02:31:52.044Z,14.50
2018-07-08T02:34:21.663Z,14.50
2018-07-08T02:36:51.053Z,14.50
2018-07-08T02:39:20.409Z,14.50
2018-07-08T02:41:49.786Z,14.30
2018-07-08T02:44:19.146Z,14.30
2018-07-08T02:46:48.579Z,14.30
2018-07-08T02:49:19.628Z,14.10
2018-07-08T02:51:49.513Z,14.20
2018-07-08T02:54:19.412Z,14.10
2018-07-08T02:56:48.927Z,14.00
2018-07-08T02:59:18.431Z,14.00
2018-07-08T03:01:47.971Z,13.90
2018-07-08T03:04:17.316Z,13.80
2018-07-08T03:09:15.537Z,13.50
2018-07-08T03:11:44.851Z,13.60
2018-07-08T03:14:13.988Z,13.50
2018-07-08T03:16:43.051Z,13.40
2018-07-08T03:19:12.441Z,13.40
2018-07-08T03:21:41.741Z,13.30
2018-07-08T03:24:11.029Z,13.20
2018-07-08T03:26:40.411Z,13.20
2018-07-08T03:29:09.674Z,13.20
2018-07-08T03:31:39.103Z,13.20
2018-07-08T03:34:08.443Z,13.20
2018-07-08T03:36:37.845Z,13.20
2018-07-08T03:39:08.077Z,13.20
2018-07-08T03:41:37.583Z,13.20
2018-07-08T03:44:07.722Z,13.20
2018-07-08T03:46:37.603Z,13.20
2018-07-08T03:49:07.263Z,13.30
2018-07-08T03:51:36.870Z,13.10
2018-07-08T03:54:11.665Z,13.20
2018-07-08T03:56:40.957Z,13.20
2018-07-08T03:59:10.312Z,13.20
2018-07-08T04:01:39.603Z,13.20
2018-07-08T04:04:09.164Z,13.10
2018-07-08T04:06:38.681Z,13.00
2018-07-08T04:09:08.438Z,13.00
2018-07-08T04:14:07.729Z,13.00
2018-07-08T04:16:37.306Z,13.20
2018-07-08T04:19:06.883Z,13.80
2018-07-08T04:24:06.702Z,14.40
2018-07-08T04:26:36.052Z,14.60
2018-07-08T04:29:05.460Z,14.70
2018-07-08T04:31:34.824Z,14.80
2018-07-08T04:34:04.233Z,14.90
2018-07-08T04:36:33.598Z,14.90
2018-07-08T04:41:32.389Z,15.00
2018-07-08T04:44:01.894Z,14.80
2018-07-08T04:46:31.278Z,14.70
2018-07-08T04:49:00.858Z,14.30
2018-07-08T04:51:31.239Z,14.00
2018-07-08T04:54:00.657Z,14.10
2018-07-08T04:56:30.105Z,14.10
2018-07-08T04:58:59.378Z,14.30
2018-07-08T05:01:28.700Z,14.60
2018-07-08T05:03:58.027Z,14.90
2018-07-08T05:06:27.361Z,15.10
2018-07-08T05:11:25.821Z,15.40
2018-07-08T05:13:55.211Z,15.30
2018-07-08T05:16:24.657Z,15.50
2018-07-08T05:21:23.168Z,15.90
2018-07-08T05:23:52.459Z,16.00
2018-07-08T05:26:21.873Z,15.60
2018-07-08T05:28:51.260Z,15.50
2018-07-08T05:31:20.676Z,15.40
2018-07-08T05:33:50.002Z,15.60
2018-07-08T05:36:19.409Z,15.90
2018-07-08T05:38:49.654Z,16.30
2018-07-08T05:41:19.238Z,16.20
2018-07-08T05:43:48.648Z,16.30
2018-07-08T05:46:17.992Z,16.70
2018-07-08T05:48:47.416Z,16.80
2018-07-08T05:51:16.789Z,17.00
2018-07-08T05:53:46.100Z,17.50
2018-07-08T05:56:15.515Z,17.80
2018-07-08T05:58:44.882Z,17.60
2018-07-08T06:01:14.176Z,17.50
2018-07-08T06:03:43.466Z,17.50
2018-07-08T06:06:13.068Z,17.70
2018-07-08T06:08:42.756Z,17.10
2018-07-08T06:11:12.389Z,17.20
2018-07-08T06:13:41.759Z,17.20
2018-07-08T06:16:11.152Z,17.80
2018-07-08T06:18:40.553Z,17.60
2018-07-08T06:21:10.837Z,17.90
2018-07-08T06:23:40.155Z,18.40
2018-07-08T06:26:10.488Z,18.70
2018-07-08T06:28:39.919Z,18.40
2018-07-08T06:31:09.327Z,18.20
2018-07-08T06:33:38.929Z,18.20
2018-07-08T06:36:08.344Z,18.30
2018-07-08T06:38:37.743Z,18.40
2018-07-08T06:41:07.157Z,17.90
2018-07-08T06:43:36.592Z,18.10
2018-07-08T06:46:06.076Z,18.80
2018-07-08T06:48:35.413Z,18.70
2018-07-08T06:51:04.744Z,18.40
2018-07-08T06:53:34.035Z,18.70
2018-07-08T06:56:03.400Z,18.80
2018-07-08T06:58:32.837Z,18.90
2018-07-08T07:01:02.242Z,18.70
2018-07-08T07:03:31.562Z,18.30
2018-07-08T07:06:01.279Z,19.40
2018-07-08T07:08:30.768Z,19.40
2018-07-08T07:11:00.097Z,18.90
2018-07-08T07:13:29.574Z,19.90
2018-07-08T07:15:58.966Z,19.30
2018-07-08T07:18:28.336Z,19.30
2018-07-08T07:20:57.826Z,18.80
2018-07-08T07:23:27.113Z,19.70
2018-07-08T07:25:56.553Z,20.60
2018-07-08T07:28:25.819Z,19.40
2018-07-08T07:30:55.085Z,19.50
2018-07-08T07:33:24.449Z,19.50
2018-07-08T07:35:53.994Z,19.90
2018-07-08T07:38:23.318Z,20.80
2018-07-08T07:40:52.682Z,19.70
2018-07-08T07:43:22.021Z,20.20
2018-07-08T07:45:52.044Z,20.80
2018-07-08T07:48:21.609Z,20.40
2018-07-08T07:50:50.958Z,19.90
2018-07-08T07:53:20.407Z,21.20
2018-07-08T07:55:49.658Z,21.40
2018-07-08T07:58:19.229Z,21.40
2018-07-08T08:00:48.493Z,22.40
2018-07-08T08:03:17.786Z,20.70
2018-07-08T08:05:47.294Z,21.50
2018-07-08T08:10:45.566Z,22.30
2018-07-08T08:13:15.694Z,22.40
2018-07-08T08:15:44.990Z,22.80
2018-07-08T08:20:43.712Z,22.50
2018-07-08T08:23:13.013Z,23.10
2018-07-08T08:25:42.482Z,23.30
2018-07-08T08:28:12.613Z,23.30
2018-07-08T08:30:42.003Z,22.50
2018-07-08T08:33:11.368Z,23.30
2018-07-08T08:35:40.904Z,22.10
2018-07-08T08:38:10.175Z,21.80
2018-07-08T08:40:39.662Z,21.70
2018-07-08T08:43:08.905Z,22.90
2018-07-08T08:45:38.263Z,22.00
2018-07-08T08:48:07.545Z,22.00
2018-07-08T08:50:36.910Z,23.10
2018-07-08T08:53:06.234Z,23.20
2018-07-08T08:58:04.373Z,23.30
2018-07-08T09:00:33.698Z,23.50
2018-07-08T09:03:02.969Z,22.80
2018-07-08T09:05:32.363Z,21.70
2018-07-08T09:08:01.838Z,22.70
2018-07-08T09:10:31.301Z,24.40
2018-07-08T09:13:00.891Z,24.30
2018-07-08T09:15:30.300Z,25.00
2018-07-08T09:17:59.622Z,25.20
2018-07-08T09:20:28.933Z,25.40
2018-07-08T09:22:58.269Z,24.50
2018-07-08T09:25:27.687Z,23.80
2018-07-08T09:27:57.086Z,24.80
2018-07-08T09:30:26.523Z,24.00
2018-07-08T09:32:55.899Z,23.50
2018-07-08T09:35:26.627Z,24.40
2018-07-08T09:37:56.304Z,24.60
2018-07-08T09:40:25.790Z,24.00
2018-07-08T09:42:55.096Z,24.00
2018-07-08T09:45:24.396Z,24.20
2018-07-08T09:47:53.665Z,25.30
2018-07-08T09:50:23.078Z,25.30
2018-07-08T09:52:52.698Z,25.10
2018-07-08T09:55:22.038Z,25.90
2018-07-08T09:57:51.364Z,26.60
2018-07-08T10:00:20.913Z,24.30
2018-07-08T10:05:19.292Z,24.10
2018-07-08T10:07:48.633Z,24.30
2018-07-08T10:12:47.071Z,24.60
2018-07-08T10:15:16.426Z,23.70
2018-07-08T10:20:14.833Z,24.20
2018-07-08T10:22:44.618Z,23.90
2018-07-08T10:25:14.217Z,25.20
2018-07-08T10:27:57.755Z,24.30
2018-07-08T10:30:27.212Z,26.10
2018-07-08T10:32:58.100Z,25.10
2018-07-08T10:35:38.756Z,24.90
2018-07-08T10:38:10.064Z,25.70
2018-07-08T10:40:40.482Z,26.50
2018-07-08T10:43:10.040Z,25.70
2018-07-08T10:45:39.517Z,24.60
2018-07-08T10:48:09.258Z,24.80
2018-07-08T10:50:39.085Z,25.80
2018-07-08T10:53:08.817Z,25.60
2018-07-08T10:55:38.532Z,26.60
2018-07-08T10:58:08.553Z,25.60
2018-07-08T11:00:38.101Z,26.10
2018-07-08T11:03:07.470Z,26.10
2018-07-08T11:05:36.880Z,26.80
2018-07-08T11:08:06.707Z,27.60
2018-07-08T11:10:36.398Z,28.20
2018-07-08T11:13:05.889Z,29.00
2018-07-08T11:15:35.278Z,28.70
2018-07-08T11:20:33.992Z,26.00
2018-07-08T11:23:03.383Z,26.60
2018-07-08T11:25:33.567Z,26.60
2018-07-08T11:28:04.107Z,28.00
2018-07-08T11:30:33.646Z,28.30
2018-07-08T11:33:03.123Z,27.30
2018-07-08T11:35:32.498Z,26.40
2018-07-08T11:38:02.057Z,28.80
2018-07-08T11:40:31.597Z,28.90
2018-07-08T11:43:01.239Z,28.50
2018-07-08T11:45:30.531Z,28.40
2018-07-08T11:48:00.111Z,28.70
2018-07-08T11:50:29.627Z,27.60
2018-07-08T11:52:59.901Z,28.00
2018-07-08T11:55:29.450Z,28.10
2018-07-08T11:57:58.718Z,28.80
2018-07-08T12:00:28.258Z,29.50
2018-07-08T12:02:57.578Z,28.90
2018-07-08T12:05:27.017Z,28.20
2018-07-08T12:07:56.288Z,27.90
2018-07-08T12:10:25.692Z,28.10
2018-07-08T12:12:55.003Z,28.10
2018-07-08T12:15:25.285Z,27.60
2018-07-08T12:17:54.648Z,27.60
2018-07-08T12:20:23.966Z,29.00
2018-07-08T12:22:53.493Z,29.70
2018-07-08T12:25:22.926Z,29.50
2018-07-08T12:27:52.330Z,28.60
2018-07-08T12:30:21.705Z,26.90
2018-07-08T12:32:52.042Z,27.70
2018-07-08T12:35:21.789Z,28.30
2018-07-08T12:42:48.847Z,28.80
2018-07-08T12:45:18.140Z,29.20
2018-07-08T12:50:16.425Z,29.20
2018-07-08T12:52:45.908Z,29.50
2018-07-08T12:55:15.329Z,29.20
2018-07-08T12:57:44.773Z,31.10
2018-07-08T13:00:14.074Z,30.20
2018-07-08T13:02:43.362Z,30.50
2018-07-08T13:05:12.629Z,29.80
2018-07-08T13:07:42.345Z,28.70
2018-07-08T13:10:11.888Z,28.40
2018-07-08T13:12:41.223Z,29.20
2018-07-08T13:15:10.628Z,29.20
2018-07-08T13:17:39.964Z,28.80
2018-07-08T13:20:09.575Z,28.00
2018-07-08T13:22:38.993Z,28.20
2018-07-08T13:27:37.200Z,29.60
2018-07-08T13:30:06.541Z,28.60
2018-07-08T13:32:36.432Z,28.20
2018-07-08T13:35:05.717Z,27.70
2018-07-08T13:37:35.095Z,28.30
2018-07-08T13:42:33.761Z,27.70
2018-07-08T13:45:03.468Z,27.40
2018-07-08T13:47:32.867Z,26.90
2018-07-08T13:50:02.681Z,27.30
2018-07-08T13:52:32.124Z,27.80
2018-07-08T13:57:30.822Z,27.70
2018-07-08T14:00:00.194Z,28.70
2018-07-08T14:02:29.898Z,28.60
2018-07-08T14:05:00.137Z,28.40
2018-07-08T14:07:29.568Z,28.20
2018-07-08T14:12:28.547Z,28.60
2018-07-08T14:14:57.919Z,28.30
2018-07-08T14:17:27.524Z,27.60
2018-07-08T14:19:56.835Z,28.40
2018-07-08T14:22:26.327Z,29.20
2018-07-08T14:24:56.310Z,29.20
2018-07-08T14:29:54.477Z,28.60
2018-07-08T14:32:24.011Z,27.30
2018-07-08T14:34:53.440Z,27.20
2018-07-08T14:37:22.836Z,27.20
2018-07-08T14:39:52.214Z,27.00
2018-07-08T14:44:50.561Z,27.90
2018-07-08T14:47:20.116Z,28.90
2018-07-08T14:52:18.316Z,28.10
2018-07-08T14:54:47.681Z,28.70
2018-07-08T14:57:17.076Z,29.30
2018-07-08T14:59:46.753Z,29.10
2018-07-08T15:02:16.063Z,29.00
2018-07-08T15:04:46.221Z,28.10
2018-07-08T15:07:15.545Z,27.40
2018-07-08T15:12:13.871Z,28.10
2018-07-08T15:14:43.273Z,28.20
2018-07-08T15:17:12.596Z,27.60
2018-07-08T15:19:41.947Z,28.10
2018-07-08T15:22:11.245Z,28.00
2018-07-08T15:24:40.837Z,27.70
2018-07-08T15:29:39.810Z,27.20
2018-07-08T15:32:09.359Z,27.50
2018-07-08T15:34:38.660Z,27.40
2018-07-08T15:37:11.236Z,27.90
2018-07-08T15:39:40.568Z,28.10
2018-07-08T15:42:10.116Z,28.40
2018-07-08T15:44:39.788Z,28.00
2018-07-08T15:47:09.320Z,27.80
2018-07-08T15:49:38.901Z,27.20
2018-07-08T15:52:08.328Z,27.40
2018-07-08T15:54:38.245Z,27.40
2018-07-08T15:57:07.588Z,27.20
2018-07-08T15:59:37.155Z,27.30
2018-07-08T16:02:07.330Z,27.30
2018-07-08T16:04:36.868Z,27.50
2018-07-08T16:07:06.470Z,27.40
2018-07-08T16:09:36.142Z,27.40
2018-07-08T16:12:08.264Z,27.80
2018-07-08T16:17:08.383Z,26.70
2018-07-08T16:19:37.926Z,27.00
2018-07-08T16:22:07.209Z,27.00
2018-07-08T16:24:36.652Z,27.10
2018-07-08T16:27:06.202Z,27.00
2018-07-08T16:29:35.594Z,26.40
2018-07-08T16:32:04.991Z,26.70
2018-07-08T16:34:34.787Z,26.30
2018-07-08T16:37:04.084Z,26.30
2018-07-08T16:39:33.873Z,26.50
2018-07-08T16:44:33.187Z,26.50
2018-07-08T16:47:02.532Z,26.40
2018-07-08T16:49:31.882Z,26.30
2018-07-08T16:52:01.454Z,26.70
2018-07-08T16:54:30.847Z,26.70
2018-07-08T16:57:00.197Z,26.20
2018-07-08T16:59:29.796Z,26.20
2018-07-08T17:01:59.102Z,26.40
2018-07-08T17:04:28.478Z,26.30
2018-07-08T17:06:57.867Z,26.50
2018-07-08T17:09:27.990Z,26.50
2018-07-08T17:11:57.360Z,26.50
2018-07-08T17:14:27.367Z,26.40
2018-07-08T17:16:56.747Z,26.60
2018-07-08T17:19:26.189Z,26.60
2018-07-08T17:21:56.026Z,26.60
2018-07-08T17:24:25.398Z,26.40
2018-07-08T17:29:24.029Z,25.70
2018-07-08T17:34:23.247Z,25.20
2018-07-08T17:36:52.985Z,25.00
2018-07-08T17:41:51.132Z,25.00
2018-07-08T17:44:20.572Z,24.90
2018-07-08T17:46:49.951Z,24.80
2018-07-08T17:49:19.494Z,24.70
2018-07-08T17:54:18.066Z,24.80
2018-07-08T17:56:47.433Z,24.80
2018-07-08T17:59:16.885Z,24.50
2018-07-08T18:01:46.458Z,24.50
2018-07-08T18:04:16.372Z,24.40
2018-07-08T18:06:45.966Z,24.30
2018-07-08T18:09:16.266Z,24.20
2018-07-08T18:11:45.811Z,24.20
2018-07-08T18:14:15.844Z,24.20
2018-07-08T18:16:45.127Z,24.10
2018-07-08T18:19:14.415Z,24.10
2018-07-08T18:21:43.916Z,24.00
2018-07-08T18:24:13.229Z,24.00
2018-07-08T18:26:42.831Z,23.80
2018-07-08T18:29:12.619Z,23.80
2018-07-08T18:31:41.979Z,23.80
2018-07-08T18:34:11.333Z,23.70
2018-07-08T18:36:40.737Z,23.70
2018-07-08T18:39:10.654Z,23.60
2018-07-08T18:41:41.096Z,23.60
2018-07-08T18:44:10.868Z,23.50
2018-07-08T18:46:40.698Z,23.40
2018-07-08T18:49:10.152Z,23.30
2018-07-08T18:51:39.828Z,23.30
2018-07-08T18:54:09.146Z,23.20
2018-07-08T18:56:38.607Z,23.20
2018-07-08T18:59:08.272Z,23.00
2018-07-08T19:01:37.823Z,23.00
2018-07-08T19:04:07.303Z,23.00
2018-07-08T19:06:36.703Z,23.00
2018-07-08T19:09:07.062Z,23.00
2018-07-08T19:11:36.470Z,22.90
2018-07-08T19:14:06.200Z,22.90
2018-07-08T19:16:35.657Z,22.90
2018-07-08T19:19:05.127Z,22.70
2018-07-08T19:21:34.524Z,22.70
2018-07-08T19:24:04.269Z,22.50
2018-07-08T19:26:33.683Z,22.50
2018-07-08T19:31:32.567Z,22.40
2018-07-08T19:36:31.286Z,22.30
2018-07-08T19:39:01.009Z,22.30
2018-07-08T19:41:30.573Z,22.30
2018-07-08T19:44:00.155Z,22.20
2018-07-08T19:46:29.601Z,22.00
2018-07-08T19:48:59.686Z,22.00
2018-07-08T19:51:29.181Z,21.90
2018-07-08T19:53:59.471Z,21.80
2018-07-08T19:56:29.117Z,21.70
2018-07-08T19:58:59.402Z,21.70
2018-07-08T20:01:29.005Z,21.60
2018-07-08T20:03:58.544Z,21.50
2018-07-08T20:06:28.320Z,21.50
2018-07-08T20:08:57.957Z,21.40
2018-07-08T20:11:29.557Z,21.30
2018-07-08T20:16:28.774Z,21.20
2018-07-08T20:18:58.427Z,21.20
2018-07-08T20:21:28.084Z,21.10
2018-07-08T20:23:58.076Z,21.00
2018-07-08T20:26:28.621Z,20.90
2018-07-08T20:28:57.968Z,20.90
2018-07-08T20:31:27.664Z,20.80
2018-07-08T20:33:57.344Z,20.80
2018-07-08T20:36:27.286Z,20.70
2018-07-08T20:38:57.189Z,20.60
2018-07-08T20:41:26.624Z,20.60
2018-07-08T20:43:56.227Z,20.50
2018-07-08T20:46:25.571Z,20.40
2018-07-08T20:48:54.880Z,20.40
2018-07-08T20:51:24.257Z,20.30
2018-07-08T20:53:53.931Z,20.20
2018-07-08T20:58:52.427Z,20.00
2018-07-08T21:01:21.899Z,19.90
2018-07-08T21:03:51.351Z,19.90
2018-07-08T21:06:20.684Z,19.90
2018-07-08T21:08:49.972Z,19.70
2018-07-08T21:11:19.475Z,19.70
2018-07-08T21:13:48.820Z,19.70
2018-07-08T21:16:18.224Z,19.80
2018-07-08T21:18:47.784Z,19.80
2018-07-08T21:21:17.364Z,19.70
2018-07-08T21:23:46.875Z,19.70
2018-07-08T21:26:16.172Z,19.60
2018-07-08T21:28:45.614Z,19.50
2018-07-08T21:31:15.255Z,19.50
2018-07-08T21:33:44.798Z,19.50
2018-07-08T21:36:14.220Z,19.40
2018-07-08T21:38:44.043Z,19.30
2018-07-08T21:41:13.371Z,19.20
2018-07-08T21:43:42.710Z,19.10
2018-07-08T21:46:12.038Z,19.20
2018-07-08T21:48:41.657Z,19.10
2018-07-08T21:51:11.168Z,19.10
2018-07-08T21:53:40.600Z,19.00
2018-07-08T21:56:09.900Z,19.00
2018-07-08T21:58:39.260Z,19.00
2018-07-08T22:01:17.410Z,19.00
2018-07-08T22:06:16.989Z,18.80
2018-07-08T22:08:46.502Z,18.80
2018-07-08T22:11:16.084Z,18.80
2018-07-08T22:13:45.603Z,18.70
2018-07-08T22:16:14.955Z,18.70
2018-07-08T22:18:44.292Z,18.60
2018-07-08T22:21:13.622Z,18.60
2018-07-08T22:23:43.025Z,18.50
2018-07-08T22:26:12.290Z,18.40
2018-07-08T22:28:41.747Z,18.30
2018-07-08T22:31:11.124Z,18.30
2018-07-08T22:33:40.504Z,18.30
2018-07-08T22:36:09.836Z,18.20
2018-07-08T22:38:39.238Z,18.20
2018-07-08T22:41:08.584Z,18.10
2018-07-08T22:43:37.874Z,18.10
2018-07-08T22:46:07.213Z,18.00
2018-07-08T22:48:36.548Z,18.00
2018-07-08T22:51:05.918Z,18.00
2018-07-08T22:53:35.273Z,17.90
2018-07-08T22:56:04.660Z,17.80
2018-07-08T22:58:34.217Z,17.80
2018-07-08T23:01:14.797Z,17.80
2018-07-08T23:03:45.805Z,17.60
2018-07-08T23:06:15.857Z,17.60
2018-07-08T23:08:45.208Z,17.70
2018-07-08T23:13:43.850Z,17.50
2018-07-08T23:16:13.179Z,17.60
2018-07-08T23:18:42.496Z,17.50
2018-07-08T23:21:11.888Z,17.40
2018-07-08T23:23:41.205Z,17.30
2018-07-08T23:28:39.389Z,17.30
2018-07-08T23:31:09.647Z,17.20
2018-07-08T23:33:39.014Z,17.20
2018-07-08T23:36:08.993Z,17.10
2018-07-08T23:38:38.475Z,17.00
2018-07-08T23:41:09.143Z,16.90
2018-07-08T23:43:38.639Z,17.00
2018-07-08T23:46:08.090Z,16.90
2018-07-08T23:48:37.497Z,16.80
2018-07-08T23:51:06.899Z,16.70
2018-07-08T23:53:36.197Z,16.70
2018-07-08T23:56:05.689Z,16.80
2018-07-08T23:58:35.029Z,16.70
